createdAt,value
2018-05-18T00:00:17.636Z,13.33
2018-05-18T00:02:45.069Z,13.13
2018-05-18T00:05:12.559Z,9.90
2018-05-18T00:07:40.739Z,13.83
2018-05-18T00:10:08.171Z,9.00
2018-05-18T00:12:35.653Z,9.77
2018-05-18T00:15:03.080Z,6.40
2018-05-18T00:17:30.515Z,6.93
2018-05-18T00:19:58.793Z,6.50
2018-05-18T00:22:26.145Z,9.00
2018-05-18T00:24:54.344Z,7.70
2018-05-18T00:27:21.768Z,7.00
2018-05-18T00:29:49.980Z,5.73
2018-05-18T00:32:17.403Z,6.63
2018-05-18T00:34:44.832Z,8.27
2018-05-18T00:37:12.286Z,8.53
2018-05-18T00:39:39.716Z,12.93
2018-05-18T00:42:07.172Z,13.30
2018-05-18T00:44:34.643Z,12.17
2018-05-18T00:47:02.068Z,19.63
2018-05-18T00:49:29.509Z,23.00
2018-05-18T00:51:56.944Z,14.60
2018-05-18T00:54:25.147Z,21.00
2018-05-18T00:56:52.577Z,11.33
2018-05-18T00:59:20.782Z,13.27
2018-05-18T01:01:48.212Z,9.13
2018-05-18T01:04:15.645Z,11.93
2018-05-18T01:06:43.855Z,12.07
2018-05-18T01:09:11.294Z,12.33
2018-05-18T01:11:38.731Z,9.67
2018-05-18T01:14:06.929Z,8.30
2018-05-18T01:16:34.365Z,10.27
2018-05-18T01:19:02.571Z,10.17
2018-05-18T01:21:29.992Z,10.93
2018-05-18T01:23:58.197Z,9.07
2018-05-18T01:26:25.631Z,16.80
2018-05-18T01:28:53.073Z,14.50
2018-05-18T01:31:20.508Z,11.47
2018-05-18T01:33:47.954Z,13.23
2018-05-18T01:36:15.385Z,14.27
2018-05-18T01:38:42.808Z,7.97
2018-05-18T01:41:11.038Z,10.47
2018-05-18T01:43:38.468Z,11.43
2018-05-18T01:46:05.908Z,10.93
2018-05-18T01:48:33.349Z,11.67
2018-05-18T01:51:01.553Z,10.90
2018-05-18T01:53:28.972Z,7.87
2018-05-18T01:55:57.177Z,10.20
2018-05-18T01:58:24.605Z,8.53
2018-05-18T02:00:52.803Z,8.77
2018-05-18T02:03:20.251Z,10.37
2018-05-18T02:05:47.686Z,8.43
2018-05-18T02:08:15.880Z,8.50
2018-05-18T02:10:43.309Z,9.80
2018-05-18T02:13:11.508Z,6.87
2018-05-18T02:15:39.005Z,7.93
2018-05-18T02:18:07.200Z,8.00
2018-05-18T02:20:34.627Z,9.77
2018-05-18T02:23:02.048Z,7.00
2018-05-18T02:25:29.505Z,7.53
2018-05-18T02:27:56.933Z,8.83
2018-05-18T02:30:25.174Z,6.97
2018-05-18T02:32:52.609Z,6.27
2018-05-18T02:35:20.051Z,6.17
2018-05-18T02:37:47.472Z,7.47
2018-05-18T02:40:15.674Z,4.33
2018-05-18T02:42:43.101Z,5.90
2018-05-18T02:45:11.314Z,5.20
2018-05-18T02:47:38.747Z,7.40
2018-05-18T02:50:06.186Z,5.70
2018-05-18T02:52:33.632Z,8.77
2018-05-18T02:55:01.040Z,5.87
2018-05-18T02:57:28.473Z,4.03
2018-05-18T02:59:55.905Z,8.80
2018-05-18T03:02:23.337Z,8.90
2018-05-18T03:04:50.767Z,5.50
2018-05-18T03:07:18.200Z,8.30
2018-05-18T03:09:45.631Z,6.60
2018-05-18T03:12:13.061Z,10.63
2018-05-18T03:14:40.523Z,6.23
2018-05-18T03:17:08.976Z,9.37
2018-05-18T03:19:36.400Z,7.73
2018-05-18T03:22:03.833Z,8.37
2018-05-18T03:24:32.016Z,7.63
2018-05-18T03:27:00.216Z,5.77
2018-05-18T03:29:27.674Z,9.43
2018-05-18T03:31:55.115Z,9.83
2018-05-18T03:34:22.540Z,7.20
2018-05-18T03:36:49.995Z,5.97
2018-05-18T03:39:17.424Z,7.63
2018-05-18T03:41:44.857Z,8.40
2018-05-18T03:44:12.288Z,6.10
2018-05-18T03:46:39.752Z,8.63
2018-05-18T03:49:07.184Z,5.40
2018-05-18T03:51:35.388Z,7.33
2018-05-18T03:54:02.823Z,8.77
2018-05-18T03:59:25.729Z,4.97
2018-05-18T04:02:04.961Z,5.57
2018-05-18T04:04:45.178Z,5.63
2018-05-18T04:07:25.286Z,6.80
2018-05-18T04:09:52.745Z,9.43
2018-05-18T04:12:20.192Z,8.87
2018-05-18T04:14:47.627Z,6.83
2018-05-18T04:17:15.060Z,9.63
2018-05-18T04:19:42.507Z,8.67
2018-05-18T04:22:10.706Z,12.73
2018-05-18T04:24:38.193Z,10.20
2018-05-18T04:27:05.624Z,9.07
2018-05-18T04:29:33.058Z,5.47
2018-05-18T04:32:01.258Z,12.00
2018-05-18T04:34:28.689Z,7.13
2018-05-18T04:36:56.117Z,6.50
2018-05-18T04:39:23.581Z,8.73
2018-05-18T04:41:51.788Z,6.90
2018-05-18T04:44:19.236Z,11.60
2018-05-18T04:46:46.667Z,7.20
2018-05-18T04:49:14.867Z,5.17
2018-05-18T04:51:42.333Z,8.20
2018-05-18T04:54:09.774Z,8.00
2018-05-18T04:56:37.201Z,5.77
2018-05-18T04:59:05.405Z,4.40
2018-05-18T05:01:32.840Z,6.27
2018-05-18T05:04:01.052Z,5.30
2018-05-18T05:06:28.505Z,5.73
2018-05-18T05:08:55.988Z,8.53
2018-05-18T05:11:23.416Z,5.03
2018-05-18T05:13:50.852Z,5.03
2018-05-18T05:16:18.285Z,6.27
2018-05-18T05:18:46.493Z,7.90
2018-05-18T05:21:13.924Z,6.07
2018-05-18T05:23:42.137Z,7.53
2018-05-18T05:26:09.564Z,8.43
2018-05-18T05:28:37.000Z,5.73
2018-05-18T05:31:05.208Z,5.87
2018-05-18T05:33:32.643Z,3.93
2018-05-18T05:36:00.068Z,7.27
2018-05-18T05:38:27.510Z,8.33
2018-05-18T05:40:55.041Z,8.97
2018-05-18T05:43:22.473Z,6.87
2018-05-18T05:45:49.904Z,12.37
2018-05-18T05:48:18.191Z,11.60
2018-05-18T05:50:46.389Z,9.97
2018-05-18T05:53:13.821Z,7.87
2018-05-18T05:55:42.019Z,6.00
2018-05-18T05:58:09.460Z,9.60
2018-05-18T06:00:36.897Z,8.43
2018-05-18T06:03:05.105Z,12.70
2018-05-18T06:05:32.542Z,7.60
2018-05-18T06:08:00.736Z,11.73
2018-05-18T06:10:29.571Z,11.20
2018-05-18T06:12:57.501Z,8.47
2018-05-18T06:15:25.340Z,8.37
2018-05-18T06:17:53.177Z,7.30
2018-05-18T06:20:21.137Z,12.87
2018-05-18T06:22:48.944Z,8.20
2018-05-18T06:25:16.821Z,11.57
2018-05-18T06:27:45.929Z,17.00
2018-05-18T06:30:16.431Z,13.83
2018-05-18T06:32:44.305Z,10.57
2018-05-18T06:35:12.271Z,13.03
2018-05-18T06:37:40.093Z,11.73
2018-05-18T06:40:08.344Z,12.60
2018-05-18T06:42:37.290Z,9.07
2018-05-18T06:45:07.212Z,11.43
2018-05-18T06:47:35.817Z,9.80
2018-05-18T06:50:03.829Z,9.00
2018-05-18T06:52:31.758Z,7.37
2018-05-18T06:55:01.096Z,7.60
2018-05-18T06:57:28.985Z,8.77
2018-05-18T06:59:59.804Z,5.57
2018-05-18T07:02:29.091Z,11.60
2018-05-18T07:04:57.493Z,8.40
2018-05-18T07:07:25.301Z,7.10
2018-05-18T07:09:53.932Z,9.90
2018-05-18T07:12:21.840Z,13.10
2018-05-18T07:14:49.800Z,11.63
2018-05-18T07:17:17.641Z,12.53
2018-05-18T07:19:45.526Z,9.03
2018-05-18T07:22:13.368Z,5.53
2018-05-18T07:24:41.913Z,9.20
2018-05-18T07:27:09.682Z,6.80
2018-05-18T07:29:38.292Z,10.37
2018-05-18T07:32:06.162Z,8.53
2018-05-18T07:34:33.905Z,11.30
2018-05-18T07:37:01.761Z,8.33
2018-05-18T07:39:29.477Z,9.00
2018-05-18T07:41:56.945Z,8.17
2018-05-18T07:44:24.385Z,7.73
2018-05-18T07:46:51.866Z,11.87
2018-05-18T07:49:19.293Z,13.17
2018-05-18T07:51:46.757Z,7.90
2018-05-18T07:54:14.963Z,15.87
2018-05-18T07:56:42.420Z,12.40
2018-05-18T07:59:09.853Z,11.20
2018-05-18T08:01:37.293Z,10.03
2018-05-18T08:04:05.032Z,13.07
2018-05-18T08:06:32.823Z,12.43
2018-05-18T08:09:00.265Z,6.53
2018-05-18T08:11:27.704Z,7.37
2018-05-18T08:13:55.926Z,7.57
2018-05-18T08:16:23.376Z,8.13
2018-05-18T08:18:50.838Z,11.37
2018-05-18T08:21:18.575Z,9.87
2018-05-18T08:23:46.045Z,7.50
2018-05-18T08:26:13.504Z,11.90
2018-05-18T08:28:52.706Z,10.00
2018-05-18T08:31:20.172Z,9.80
2018-05-18T08:33:48.370Z,12.37
2018-05-18T08:36:15.834Z,10.83
2018-05-18T08:38:43.269Z,13.90
2018-05-18T08:41:10.707Z,10.07
2018-05-18T08:43:38.917Z,11.40
2018-05-18T08:46:06.358Z,10.93
2018-05-18T08:48:33.794Z,9.20
2018-05-18T08:51:01.240Z,11.90
2018-05-18T08:53:29.444Z,13.97
2018-05-18T08:55:56.956Z,8.37
2018-05-18T08:58:24.356Z,9.67
2018-05-18T09:00:51.785Z,9.23
2018-05-18T09:03:20.020Z,14.23
2018-05-18T09:05:47.473Z,8.90
2018-05-18T09:08:14.924Z,14.03
2018-05-18T09:10:42.379Z,7.37
2018-05-18T09:13:09.809Z,8.57
2018-05-18T09:15:37.236Z,12.63
2018-05-18T09:18:05.448Z,10.13
2018-05-18T09:20:32.884Z,10.60
2018-05-18T09:23:00.352Z,10.50
2018-05-18T09:25:27.792Z,10.87
2018-05-18T09:27:55.236Z,9.20
2018-05-18T09:30:23.440Z,11.97
2018-05-18T09:32:50.880Z,8.90
2018-05-18T09:35:18.333Z,8.17
2018-05-18T09:37:45.773Z,13.90
2018-05-18T09:40:13.968Z,14.63
2018-05-18T09:42:41.444Z,9.23
2018-05-18T09:45:08.866Z,9.63
2018-05-18T09:47:37.076Z,13.03
2018-05-18T09:50:04.518Z,9.23
2018-05-18T09:52:32.870Z,9.57
2018-05-18T09:55:01.150Z,9.00
2018-05-18T09:57:28.513Z,9.50
2018-05-18T09:59:55.945Z,9.03
2018-05-18T10:02:24.152Z,11.90
2018-05-18T10:04:51.597Z,8.17
2018-05-18T10:07:19.264Z,7.07
2018-05-18T10:09:46.709Z,12.13
2018-05-18T10:12:14.146Z,9.67
2018-05-18T10:14:42.360Z,14.40
2018-05-18T10:17:09.804Z,11.60
2018-05-18T10:19:37.253Z,10.43
2018-05-18T10:22:04.781Z,13.63
2018-05-18T10:24:32.930Z,9.90
2018-05-18T10:27:00.427Z,8.70
2018-05-18T10:29:28.572Z,12.47
2018-05-18T10:31:56.008Z,10.70
2018-05-18T10:34:23.453Z,10.87
2018-05-18T10:36:50.898Z,12.80
2018-05-18T10:39:18.368Z,12.63
2018-05-18T10:41:45.800Z,11.77
2018-05-18T10:44:13.242Z,8.60
2018-05-18T10:46:41.441Z,12.07
2018-05-18T10:49:08.898Z,8.47
2018-05-18T10:51:36.321Z,8.97
2018-05-18T10:54:04.534Z,12.37
2018-05-18T10:56:31.996Z,10.73
2018-05-18T10:58:59.443Z,12.50
2018-05-18T11:01:26.897Z,10.47
2018-05-18T11:03:54.353Z,10.27
2018-05-18T11:06:21.789Z,8.73
2018-05-18T11:08:49.262Z,7.60
2018-05-18T11:11:16.701Z,14.90
2018-05-18T11:13:44.900Z,9.37
2018-05-18T11:16:12.342Z,11.87
2018-05-18T11:18:39.788Z,12.67
2018-05-18T11:21:07.226Z,15.40
2018-05-18T11:23:35.445Z,9.73
2018-05-18T11:26:02.894Z,7.10
2018-05-18T11:28:30.321Z,9.53
2018-05-18T11:30:58.524Z,8.63
2018-05-18T11:33:25.969Z,13.43
2018-05-18T11:35:53.415Z,11.57
2018-05-18T11:38:21.613Z,12.07
2018-05-18T11:40:49.063Z,12.97
2018-05-18T11:43:16.503Z,6.60
2018-05-18T11:45:43.949Z,10.17
2018-05-18T11:48:12.157Z,12.87
2018-05-18T11:50:39.599Z,8.67
2018-05-18T11:53:07.887Z,8.53
2018-05-18T11:55:35.328Z,9.57
2018-05-18T11:58:02.760Z,11.53
2018-05-18T12:00:30.976Z,8.03
2018-05-18T12:02:58.501Z,9.07
2018-05-18T12:05:25.858Z,12.20
2018-05-18T12:07:54.067Z,12.30
2018-05-18T12:10:21.509Z,13.07
2018-05-18T12:12:48.949Z,10.07
2018-05-18T12:15:17.183Z,13.80
2018-05-18T12:17:44.646Z,14.03
2018-05-18T12:20:12.108Z,9.50
2018-05-18T12:22:39.542Z,9.73
2018-05-18T12:25:06.993Z,12.43
2018-05-18T12:27:34.435Z,9.67
2018-05-18T12:30:01.888Z,10.10
2018-05-18T12:32:29.320Z,14.57
2018-05-18T12:34:57.550Z,12.97
2018-05-18T12:37:24.985Z,11.43
2018-05-18T12:39:52.458Z,8.57
2018-05-18T12:42:19.888Z,8.20
2018-05-18T12:44:47.329Z,15.10
2018-05-18T12:47:14.773Z,11.13
2018-05-18T12:49:43.008Z,9.20
2018-05-18T12:52:10.513Z,9.77
2018-05-18T12:54:37.974Z,14.50
2018-05-18T12:57:05.649Z,11.70
2018-05-18T12:59:34.086Z,14.80
2018-05-18T13:02:01.636Z,13.47
2018-05-18T13:04:29.088Z,15.00
2018-05-18T13:06:56.541Z,9.13
2018-05-18T13:09:23.973Z,13.93
2018-05-18T13:11:53.106Z,17.40
2018-05-18T13:14:21.321Z,13.67
2018-05-18T13:16:48.769Z,11.97
2018-05-18T13:19:16.209Z,11.50
2018-05-18T13:21:44.418Z,11.67
2018-05-18T13:24:11.858Z,9.57
2018-05-18T13:26:39.297Z,8.43
2018-05-18T13:29:07.501Z,12.03
2018-05-18T13:31:34.956Z,9.40
2018-05-18T13:34:02.426Z,14.93
2018-05-18T13:36:29.904Z,12.53
2018-05-18T13:38:57.341Z,10.20
2018-05-18T13:41:24.792Z,14.73
2018-05-18T13:43:52.226Z,9.73
2018-05-18T13:46:19.672Z,14.10
2018-05-18T13:48:48.154Z,11.17
2018-05-18T13:51:15.934Z,12.20
2018-05-18T13:53:43.673Z,11.90
2018-05-18T13:56:11.158Z,10.63
2018-05-18T13:58:38.601Z,11.57
2018-05-18T14:01:06.858Z,11.60
2018-05-18T14:03:34.293Z,9.70
2018-05-18T14:06:01.780Z,9.13
2018-05-18T14:08:29.989Z,9.67
2018-05-18T14:10:57.459Z,14.30
2018-05-18T14:13:24.907Z,11.03
2018-05-18T14:15:52.342Z,9.17
2018-05-18T14:18:19.785Z,11.20
2018-05-18T14:20:48.015Z,9.73
2018-05-18T14:23:15.428Z,8.87
2018-05-18T14:25:42.886Z,8.17
2018-05-18T14:28:10.328Z,7.97
2018-05-18T14:30:38.537Z,12.20
2018-05-18T14:33:06.008Z,10.73
2018-05-18T14:35:33.451Z,10.33
2018-05-18T14:38:01.009Z,12.37
2018-05-18T14:40:28.357Z,10.80
2018-05-18T14:42:55.852Z,12.00
2018-05-18T14:45:23.417Z,10.20
2018-05-18T14:47:50.860Z,9.83
2018-05-18T14:50:18.446Z,8.63
2018-05-18T14:52:45.888Z,8.10
2018-05-18T14:55:13.321Z,7.83
2018-05-18T14:57:40.863Z,12.47
2018-05-18T15:00:08.313Z,8.33
2018-05-18T15:02:35.781Z,8.43
2018-05-18T15:05:05.288Z,7.70
2018-05-18T15:07:32.917Z,7.43
2018-05-18T15:10:00.379Z,7.27
2018-05-18T15:12:28.639Z,8.97
2018-05-18T15:14:56.075Z,8.43
2018-05-18T15:17:23.512Z,8.17
2018-05-18T15:19:50.942Z,7.07
2018-05-18T15:22:18.392Z,8.40
2018-05-18T15:24:45.836Z,10.80
2018-05-18T15:27:14.064Z,12.10
2018-05-18T15:29:41.501Z,11.40
2018-05-18T15:32:08.999Z,8.37
2018-05-18T15:34:36.446Z,10.43
2018-05-18T15:37:03.881Z,9.87
2018-05-18T15:39:31.325Z,7.77
2018-05-18T15:41:58.760Z,7.23
2018-05-18T15:44:26.212Z,10.37
2018-05-18T15:46:53.701Z,12.43
2018-05-18T15:49:21.209Z,10.27
2018-05-18T15:51:48.592Z,10.97
2018-05-18T15:54:16.081Z,12.80
2018-05-18T15:56:43.526Z,11.77
2018-05-18T15:59:10.961Z,9.33
2018-05-18T16:01:38.401Z,11.60
2018-05-18T16:04:06.619Z,8.70
2018-05-18T16:06:34.064Z,10.33
2018-05-18T16:09:01.517Z,12.87
2018-05-18T16:11:28.957Z,11.40
2018-05-18T16:13:56.396Z,9.13
2018-05-18T16:16:24.605Z,7.63
2018-05-18T16:18:52.045Z,9.13
2018-05-18T16:21:19.481Z,10.10
2018-05-18T16:23:47.696Z,11.70
2018-05-18T16:26:15.153Z,9.50
2018-05-18T16:28:42.603Z,11.00
2018-05-18T16:31:10.037Z,11.67
2018-05-18T16:33:38.285Z,11.10
2018-05-18T16:36:05.749Z,12.30
2018-05-18T16:38:33.978Z,14.27
2018-05-18T16:41:01.416Z,11.43
2018-05-18T16:43:28.869Z,10.10
2018-05-18T16:45:56.308Z,11.67
2018-05-18T16:48:24.518Z,9.93
2018-05-18T16:50:52.000Z,9.93
2018-05-18T16:53:19.441Z,12.43
2018-05-18T16:55:46.901Z,8.50
2018-05-18T16:58:14.336Z,7.07
2018-05-18T17:00:41.773Z,6.40
2018-05-18T17:03:09.343Z,5.90
2018-05-18T17:05:36.783Z,7.10
2018-05-18T17:08:04.989Z,9.10
2018-05-18T17:10:32.433Z,9.13
2018-05-18T17:12:59.865Z,9.00
2018-05-18T17:15:28.074Z,9.83
2018-05-18T17:17:55.506Z,11.73
2018-05-18T17:20:22.973Z,7.27
2018-05-18T17:22:50.400Z,6.33
2018-05-18T17:25:18.610Z,11.17
2018-05-18T17:27:46.097Z,6.33
2018-05-18T17:30:13.557Z,7.53
2018-05-18T17:32:40.992Z,7.60
2018-05-18T17:35:09.340Z,8.00
2018-05-18T17:37:37.554Z,7.30
2018-05-18T17:40:05.037Z,11.43
2018-05-18T17:42:33.273Z,9.77
2018-05-18T17:45:00.699Z,8.23
2018-05-18T17:47:29.097Z,8.20
2018-05-18T17:49:56.617Z,6.20
2018-05-18T17:52:24.053Z,8.27
2018-05-18T17:54:51.696Z,7.33
2018-05-18T17:57:19.358Z,9.33
2018-05-18T17:59:46.833Z,9.73
2018-05-18T18:02:14.465Z,10.07
2018-05-18T18:04:45.637Z,8.73
2018-05-18T18:07:13.079Z,8.77
2018-05-18T18:09:41.720Z,9.13
2018-05-18T18:12:09.255Z,12.13
2018-05-18T18:14:37.037Z,12.17
2018-05-18T18:17:05.940Z,11.43
2018-05-18T18:19:34.412Z,8.57
2018-05-18T18:22:02.637Z,9.17
2018-05-18T18:24:30.068Z,6.67
2018-05-18T18:26:57.840Z,9.13
2018-05-18T18:29:25.311Z,6.13
2018-05-18T18:31:53.541Z,6.83
2018-05-18T18:34:21.010Z,7.73
2018-05-18T18:36:48.742Z,8.83
2018-05-18T18:39:16.197Z,6.80
2018-05-18T18:41:44.410Z,7.87
2018-05-18T18:44:11.842Z,7.47
2018-05-18T18:46:39.329Z,6.93
2018-05-18T18:49:06.760Z,4.23
2018-05-18T18:51:35.117Z,5.83
2018-05-18T18:54:03.505Z,4.93
2018-05-18T18:56:31.724Z,4.53
2018-05-18T18:58:59.339Z,8.00
2018-05-18T19:01:27.702Z,5.53
2018-05-18T19:03:55.313Z,5.33
2018-05-18T19:06:22.750Z,3.80
2018-05-18T19:08:50.186Z,6.17
2018-05-18T19:11:18.396Z,4.60
2018-05-18T19:13:46.091Z,5.07
2018-05-18T19:16:14.568Z,6.13
2018-05-18T19:18:42.825Z,4.93
2018-05-18T19:21:10.690Z,3.93
2018-05-18T19:23:39.050Z,5.47
2018-05-18T19:26:07.738Z,4.93
2018-05-18T19:28:35.176Z,3.47
2018-05-18T19:31:02.621Z,7.20
2018-05-18T19:33:30.825Z,5.50
2018-05-18T19:35:59.063Z,6.43
2018-05-18T19:38:27.342Z,8.17
2018-05-18T19:40:55.550Z,9.53
2018-05-18T19:43:22.993Z,13.13
2018-05-18T19:46:00.679Z,8.00
2018-05-18T19:48:32.056Z,10.83
2018-05-18T19:53:41.104Z,5.63
2018-05-18T19:56:08.673Z,8.00
2018-05-18T19:58:36.328Z,5.87
2018-05-18T20:01:04.582Z,6.77
2018-05-18T20:03:32.032Z,7.57
2018-05-18T20:05:59.523Z,6.40
2018-05-18T20:08:26.977Z,7.13
2018-05-18T20:10:54.428Z,9.17
2018-05-18T20:13:21.871Z,9.00
2018-05-18T20:15:49.323Z,11.97
2018-05-18T20:18:16.808Z,6.23
2018-05-18T20:20:44.372Z,9.37
2018-05-18T20:23:12.034Z,8.13
2018-05-18T20:25:39.565Z,6.40
2018-05-18T20:28:07.895Z,5.87
2018-05-18T20:30:36.162Z,9.00
2018-05-18T20:33:03.719Z,10.60
2018-05-18T20:35:31.182Z,6.87
2018-05-18T20:37:58.633Z,9.97
2018-05-18T20:40:26.855Z,7.50
2018-05-18T20:42:55.165Z,8.13
2018-05-18T20:45:22.699Z,5.40
2018-05-18T20:47:51.071Z,7.33
2018-05-18T20:50:18.593Z,6.10
2018-05-18T20:52:46.849Z,7.67
2018-05-18T20:55:14.292Z,6.70
2018-05-18T20:57:41.764Z,5.67
2018-05-18T21:00:09.328Z,4.27
2018-05-18T21:02:36.782Z,4.37
2018-05-18T21:05:04.445Z,6.20
2018-05-18T21:07:31.908Z,6.53
2018-05-18T21:10:00.125Z,5.93
2018-05-18T21:12:27.561Z,4.73
2018-05-18T21:14:55.000Z,8.67
2018-05-18T21:17:23.197Z,6.47
2018-05-18T21:19:50.632Z,8.70
2018-05-18T21:22:18.836Z,9.03
2018-05-18T21:24:46.302Z,9.23
2018-05-18T21:27:13.743Z,9.13
2018-05-18T21:29:41.180Z,9.47
2018-05-18T21:32:08.617Z,6.47
2018-05-18T21:34:36.058Z,6.73
2018-05-18T21:37:03.497Z,5.17
2018-05-18T21:39:30.949Z,4.20
2018-05-18T21:41:58.384Z,3.70
2018-05-18T21:44:26.605Z,4.97
2018-05-18T21:46:54.037Z,4.47
2018-05-18T21:49:21.476Z,4.93
2018-05-18T21:51:48.912Z,5.23
2018-05-18T21:54:16.349Z,6.43
2018-05-18T21:56:44.556Z,4.93
2018-05-18T21:59:11.992Z,6.60
2018-05-18T22:01:40.197Z,6.87
2018-05-18T22:04:07.641Z,9.07
2018-05-18T22:06:35.122Z,5.07
2018-05-18T22:09:02.529Z,6.13
2018-05-18T22:11:29.978Z,7.93
2018-05-18T22:13:58.178Z,6.23
2018-05-18T22:16:25.620Z,6.20
2018-05-18T22:18:53.070Z,5.23
2018-05-18T22:21:20.512Z,7.33
2018-05-18T22:23:48.718Z,8.17
2018-05-18T22:26:16.161Z,6.73
2018-05-18T22:28:43.592Z,5.47
2018-05-18T22:31:11.812Z,5.20
2018-05-18T22:33:39.247Z,4.23
2018-05-18T22:36:06.692Z,3.93
2018-05-18T22:38:34.953Z,3.13
2018-05-18T22:41:02.415Z,3.83
2018-05-18T22:43:30.729Z,3.67
2018-05-18T22:45:58.260Z,3.97
2018-05-18T22:48:25.709Z,3.27
2018-05-18T22:50:54.001Z,4.70
2018-05-18T22:53:21.537Z,4.33
2018-05-18T22:55:49.789Z,4.63
2018-05-18T22:58:17.249Z,4.80
2018-05-18T23:00:44.758Z,4.97
2018-05-18T23:03:12.273Z,4.13
2018-05-18T23:05:40.556Z,3.10
2018-05-18T23:08:08.848Z,3.60
2018-05-18T23:10:36.428Z,5.63
2018-05-18T23:13:03.888Z,5.17
2018-05-18T23:15:31.329Z,4.90
2018-05-18T23:17:58.767Z,4.70
2018-05-18T23:20:26.971Z,3.43
2018-05-18T23:22:54.426Z,6.77
2018-05-18T23:25:21.864Z,3.23
2018-05-18T23:27:49.309Z,3.20
2018-05-18T23:30:17.508Z,5.30
2018-05-18T23:32:44.952Z,5.73
2018-05-18T23:35:13.165Z,2.97
2018-05-18T23:37:40.596Z,3.73
2018-05-18T23:40:08.030Z,3.20
2018-05-18T23:42:35.461Z,2.70
2018-05-18T23:45:02.933Z,1.97
2018-05-18T23:47:31.151Z,3.70
2018-05-18T23:49:58.586Z,2.53
2018-05-18T23:52:26.025Z,2.30
2018-05-18T23:54:53.461Z,2.63
2018-05-18T23:57:20.893Z,2.90
2018-05-18T23:59:48.338Z,3.90
